Flight Track Log - Related Links

Times and Time Zones

All times are in EDT time to prevent confusion due to time zone crossing. See the CSN6525 flight status page for this flight to view local times or setup timezone preferences in your user account.

Time Position Orientation Groundspeed Altitude Reporting Facility
EDT Latitude Longitude Course Direction KTS MPH feet Rate Location/Type
Fri 06:21:00 AM 38.8667 121.5421 178° South  Level Estimated
Fri 06:22:00 AM 38.7677 121.5457 178° South  Level Estimated
Fri 06:23:00 AM 38.6688 121.5492 178° South  Level Estimated
Fri 06:24:00 AM 38.5698 121.5527 178° South  Level Estimated
Fri 06:25:00 AM 38.4708 121.5562 178° South  Level Estimated
Fri 06:26:00 AM 38.3718 121.5597 178° South  Level Estimated
Fri 06:27:00 AM 38.2776 121.5630 178° South  Level Estimated
Fri 06:28:00 AM 38.1834 121.5663 178° South  Level Estimated
Fri 06:29:00 AM 38.0892 121.5696 178° South  Level Estimated
Fri 06:30:00 AM 37.9950 121.5729 178° South  Level Estimated
Fri 06:31:00 AM 37.9008 121.5762 178° South  Level Estimated
Fri 06:32:00 AM 37.8066 121.5795 178° South  Level Estimated
Fri 06:33:00 AM 37.7124 121.5827 178° South  Level Estimated
Fri 06:34:00 AM 37.6182 121.5860 178° South  Level Estimated
Fri 06:35:00 AM 37.5240 121.5892 178° South  Level Estimated
Fri 06:36:00 AM 37.4298 121.5925 178° South  Level Estimated
Fri 06:37:00 AM 37.3356 121.5957 178° South  Level Estimated
Fri 06:38:00 AM 37.2414 121.5989 178° South  Level Estimated
Fri 06:39:00 AM 37.1472 121.6021 178° South  Level Estimated
Fri 06:40:00 AM 37.0530 121.6053 178° South  Level Estimated
Fri 06:41:00 AM 36.9588 121.6085 178° South  Level Estimated
Fri 06:42:00 AM 36.8646 121.6117 178° South  Level Estimated
Fri 06:43:00 AM 36.7704 121.6149 178° South  Level Estimated
Fri 06:44:00 AM 36.6762 121.6181 178° South  Level Estimated
Fri 06:45:00 AM 36.5820 121.6212 178° South  Level Estimated
Fri 06:46:00 AM 36.4878 121.6244 178° South  Level Estimated
Fri 06:47:00 AM 36.3936 121.6276 178° South  Level Estimated
Fri 06:48:00 AM 36.2994 121.6307 178° South  Level Estimated
Fri 06:49:00 AM 36.2052 121.6338 178° South  Level Estimated
Fri 06:50:00 AM 36.1110 121.6370 178° South  Level Estimated
Fri 06:51:00 AM 36.0168 121.6401 178° South  Level Estimated
Fri 06:52:00 AM 35.9226 121.6432 178° South  Level Estimated
Fri 06:53:00 AM 35.8284 121.6463 178° South  Level Estimated
Fri 06:54:00 AM 35.7342 121.6494 178° South  Level Estimated
Fri 06:55:00 AM 35.6400 121.6525 178° South  Level Estimated
Fri 06:56:00 AM 35.5458 121.6556 178° South  Level Estimated
Fri 06:57:00 AM 35.4516 121.6587 178° South  Level Estimated
Fri 06:58:00 AM 35.3574 121.6617 178° South  Level Estimated
Fri 06:59:00 AM 35.2632 121.6648 178° South  Level Estimated
Fri 07:00:00 AM 35.1690 121.6679 178° South  Level Estimated
Fri 07:01:00 AM 35.0748 121.6709 178° South  Level Estimated
Fri 07:02:00 AM 34.9806 121.6740 178° South  Level Estimated
Fri 07:03:00 AM 34.8864 121.6770 178° South  Level Estimated
Fri 07:04:00 AM 34.7922 121.6800 178° South  Level Estimated
Fri 07:05:00 AM 34.6980 121.6830 178° South  Level Estimated
Fri 07:06:00 AM 34.6038 121.6861 178° South  Level Estimated
Fri 07:07:00 AM 34.5096 121.6891 178° South  Level Estimated
Fri 07:08:00 AM 34.4154 121.6921 178° South  Level Estimated
Fri 07:09:00 AM 34.3212 121.6951 178° South  Level Estimated
Fri 07:10:00 AM 34.2270 121.6980 178° South  Level Estimated
Fri 07:11:00 AM 34.1328 121.7010 178° South  Level Estimated
Fri 07:12:00 AM 34.0386 121.7040 179° South  Level Estimated
Fri 07:13:00 AM 33.9443 121.7070 179° South  Level Estimated
Fri 07:14:00 AM 33.8501 121.7099 179° South  Level Estimated
Fri 07:15:00 AM 33.7559 121.7129 179° South  Level Estimated
Fri 07:16:00 AM 33.6617 121.7158 179° South  Level Estimated
Fri 07:17:00 AM 33.5675 121.7188 179° South  Level Estimated
Fri 07:18:00 AM 33.4733 121.7217 179° South  Level Estimated
Fri 07:19:00 AM 33.3791 121.7246 179° South  Level Estimated
Fri 07:20:00 AM 33.2849 121.7275 179° South  Level Estimated
Fri 07:21:00 AM 33.1907 121.7305 179° South  Level Estimated
Fri 07:22:00 AM 33.0965 121.7334 179° South  Level Estimated
Fri 07:23:00 AM 33.0023 121.7363 179° South  Level Estimated
Fri 07:24:00 AM 32.9081 121.7392 179° South  Level Estimated
Fri 07:25:00 AM 32.8139 121.7421 179° South  Level Estimated
Fri 07:26:00 AM 32.7197 121.7449 179° South  Level Estimated
Fri 07:27:00 AM 32.6255 121.7478 179° South  Level Estimated
Fri 07:28:00 AM 32.5313 121.7507 179° South  Level Estimated
Fri 07:29:00 AM 32.4371 121.7536 179° South  Level Estimated
Fri 07:30:00 AM 32.3429 121.7564 179° South  Level Estimated
Fri 07:31:00 AM 32.2487 121.7593 179° South  Level Estimated
Fri 07:32:00 AM 32.1544 121.7621 179° South  Level Estimated
Fri 07:33:00 AM 32.0602 121.7650 179° South  Level Estimated
Fri 07:34:00 AM 31.9660 121.7678 179° South  Level Estimated
Fri 07:35:00 AM 31.8718 121.7707 179° South  Level Estimated
Fri 07:36:00 AM 31.7776 121.7735 179° South  Level Estimated
Fri 07:37:00 AM 31.6834 121.7763 179° South  Level Estimated
Fri 07:38:00 AM 31.5892 121.7791 179° South  Level Estimated
Fri 07:39:00 AM 31.4950 121.7819 179° South  Level Estimated
Fri 07:40:00 AM 31.4008 121.7847 179° South  Level Estimated
Fri 07:41:00 AM 31.3066 121.7875 179° South  Level Estimated
Fri 07:42:00 AM 31.2124 121.7903 179° South  Level Estimated
Fri 07:43:00 AM 31.1428 121.7924 179° South  Level Estimated
Fri 07:44:00 AM 31.1428 121.7924 North  Level Estimated
Fri 07:45:00 AM 31.1428 121.7924 North  Level Estimated
Fri 07:46:00 AM 31.1428 121.7924 North  Level Estimated
Fri 07:47:00 AM 31.1428 121.7924 North  Level Estimated
Fri 07:48:00 AM 31.1428 121.7924 North  Level Estimated
Fri 07:49:00 AM 31.1428 121.7924 North  Level Estimated
Fri 07:50:00 AM 31.1428 121.7924 North  Level Estimated
Fri 07:51:00 AM 31.1428 121.7924 North  Level Estimated
Fri 07:52:00 AM 31.1428 121.7924 North  Level Estimated
Fri 07:53:00 AM 31.1428 121.7924 North  Level Estimated
Fri 07:54:00 AM 31.1428 121.7924 North  Level Estimated
Fri 07:55:00 AM 31.1428 121.7924 North  Level Estimated
Fri 07:56:00 AM 31.1428 121.7924 North  Level Estimated
Fri 07:57:00 AM 31.1428 121.7924 North  Level Estimated
Fri 07:58:00 AM 31.1428 121.7924 North  Level Estimated

Login

Don't have an account? Register now (free) for customized features, flight alerts, and more!